Time;durP1;ratioP1;P1;durP2;ratioP2;P2;SDS_P1;SDS_P2;PMS_P1;PMS_P2;Temp;Humidity;BMP_temperature;BMP_pressure;BME280_temperature;BME280_humidity;BME280_pressure;Samples;Min_cycle;Max_cycle;Signal;HPM_P1;HPM_P2
2022/11/01 00:01:21;;;;;;;33.35;15.27;;;;;;;;;;6217149;23;20446;-69
2022/11/01 00:03:47;;;;;;;28.55;14.90;;;;;;;;;;6218634;23;20016;-69
2022/11/01 00:06:13;;;;;;;30.40;14.20;;;;;;;;;;6218918;23;20016;-69
2022/11/01 00:08:39;;;;;;;28.63;14.65;;;;;;;;;;6218468;23;20055;-68
2022/11/01 00:11:06;;;;;;;31.85;15.75;;;;;;;;;;6218632;23;20016;-69
2022/11/01 00:13:32;;;;;;;29.10;13.85;;;;;;;;;;6218505;23;20023;-69
2022/11/01 00:15:59;;;;;;;30.50;14.82;;;;;;;;;;6218585;23;20022;-69
2022/11/01 00:18:25;;;;;;;26.05;14.18;;;;;;;;;;6218761;23;20091;-69
2022/11/01 00:20:51;;;;;;;30.73;14.60;;;;;;;;;;6218376;23;20012;-69
2022/11/01 00:23:17;;;;;;;25.23;13.35;;;;;;;;;;6218711;23;20023;-69
2022/11/01 00:25:44;;;;;;;33.53;13.50;;;;;;;;;;6218526;23;20445;-69
2022/11/01 00:28:10;;;;;;;34.50;12.32;;;;;;;;;;6218630;23;20023;-69
2022/11/01 00:30:37;;;;;;;29.05;13.80;;;;;;;;;;6218554;23;20012;-69
2022/11/01 00:33:03;;;;;;;22.77;12.82;;;;;;;;;;6218881;23;20008;-69
2022/11/01 00:35:30;;;;;;;27.35;13.40;;;;;;;;;;6218951;23;20019;-69
2022/11/01 00:37:57;;;;;;;29.85;13.23;;;;;;;;;;6218888;23;20017;-70
2022/11/01 00:40:24;;;;;;;28.48;13.88;;;;;;;;;;6219337;23;20008;-69
2022/11/01 00:42:50;;;;;;;24.42;12.18;;;;;;;;;;6219643;23;20087;-69
2022/11/01 00:45:16;;;;;;;32.72;13.27;;;;;;;;;;6219279;23;20455;-69
2022/11/01 00:47:42;;;;;;;24.48;12.38;;;;;;;;;;6219086;23;20016;-69
2022/11/01 00:50:08;;;;;;;23.98;12.27;;;;;;;;;;6218616;23;20028;-70
2022/11/01 00:52:34;;;;;;;25.75;12.77;;;;;;;;;;6220141;23;20020;-69
2022/11/01 00:55:00;;;;;;;25.55;12.13;;;;;;;;;;6220361;23;20028;-69
2022/11/01 00:57:26;;;;;;;26.75;12.70;;;;;;;;;;6220465;23;20345;-69
2022/11/01 00:59:52;;;;;;;25.50;12.30;;;;;;;;;;6220568;23;20012;-69
2022/11/01 01:02:18;;;;;;;24.77;12.18;;;;;;;;;;6220484;23;20012;-70
2022/11/01 01:04:44;;;;;;;27.15;12.30;;;;;;;;;;6195408;23;20019;-69
2022/11/01 01:07:11;;;;;;;24.23;11.55;;;;;;;;;;6195186;23;20338;-69
2022/11/01 01:09:37;;;;;;;30.27;11.98;;;;;;;;;;6220273;23;20016;-69
2022/11/01 01:12:04;;;;;;;28.90;11.07;;;;;;;;;;6220180;23;20393;-69
2022/11/01 01:14:31;;;;;;;24.13;12.18;;;;;;;;;;6195466;23;20016;-69
2022/11/01 01:16:57;;;;;;;21.83;11.38;;;;;;;;;;6220031;23;20024;-70
2022/11/01 01:19:24;;;;;;;26.52;11.90;;;;;;;;;;6220285;23;20043;-69
2022/11/01 01:21:50;;;;;;;23.27;11.57;;;;;;;;;;6220231;23;20039;-70
2022/11/01 01:24:16;;;;;;;26.58;11.05;;;;;;;;;;6220327;23;20146;-70
2022/11/01 01:26:42;;;;;;;27.13;10.48;;;;;;;;;;6219993;23;20027;-70
2022/11/01 01:29:08;;;;;;;20.40;11.55;;;;;;;;;;6220106;23;20096;-70
2022/11/01 01:31:34;;;;;;;22.85;10.93;;;;;;;;;;6220090;23;20016;-69
2022/11/01 01:34:00;;;;;;;23.15;11.05;;;;;;;;;;6219970;23;20020;-70
2022/11/01 01:36:26;;;;;;;21.23;10.55;;;;;;;;;;6219944;23;20013;-69
2022/11/01 01:38:52;;;;;;;18.65;10.02;;;;;;;;;;6219931;23;20016;-69
2022/11/01 01:44:41;;;;;;;23.60;10.30;;;13.80;99.90;;;;;;6219820;23;20016;-69
2022/11/01 01:47:12;;;;;;;23.70;10.27;;;;;;;;;;6219958;23;20338;-69
2022/11/01 01:49:38;;;;;;;25.38;10.68;;;;;;;;;;6219987;23;20045;-69
2022/11/01 01:52:05;;;;;;;23.48;10.65;;;;;;;;;;6194886;23;20012;-69
2022/11/01 01:54:31;;;;;;;26.48;10.48;;;;;;;;;;6219785;23;20020;-69
2022/11/01 01:56:58;;;;;;;22.90;9.98;;;;;;;;;;6219836;23;20321;-69
2022/11/01 01:59:25;;;;;;;24.52;10.63;;;;;;;;;;6219899;23;20054;-69
2022/11/01 02:01:51;;;;;;;25.33;10.30;;;;;;;;;;6194759;23;20016;-69
2022/11/01 02:04:22;;;;;;;20.25;10.20;;;;;;;;;;6219687;23;20008;-69
2022/11/01 02:06:48;;;;;;;18.52;9.60;;;;;;;;;;6194798;23;20072;-69
2022/11/01 02:09:15;;;;;;;19.58;9.70;;;;;;;;;;6219688;23;20012;-69
2022/11/01 02:11:41;;;;;;;22.20;9.80;;;;;;;;;;6219702;23;20346;-69
2022/11/01 02:14:07;;;;;;;19.48;9.65;;;;;;;;;;6219777;23;20020;-69
2022/11/01 02:16:39;;;;;;;15.65;9.38;;;;;;;;;;6219629;23;20020;-69
2022/11/01 02:19:11;;;;;;;17.58;8.70;;;;;;;;;;6219482;23;20015;-69
2022/11/01 02:21:40;;;;;;;21.85;9.90;;;;;;;;;;6246519;23;20015;-69
2022/11/01 02:24:06;;;;;;;15.30;9.63;;;;;;;;;;6219591;23;20458;-69
2022/11/01 02:26:41;;;;;;;18.08;9.45;;;;;;;;;;6219611;23;20024;-69
2022/11/01 02:29:36;;;;;;;22.38;10.02;;;13.70;99.90;;;;;;6219244;23;20601;-69
2022/11/01 02:32:21;;;;;;;19.33;9.32;;;;;;;;;;6114390;23;20022;-69
2022/11/01 02:34:47;;;;;;;24.52;9.10;;;;;;;;;;6219394;23;20019;-69
2022/11/01 02:37:17;;;;;;;19.48;8.82;;;;;;;;;;6219374;23;20016;-69
2022/11/01 02:39:47;;;;;;;16.52;8.32;;;;;;;;;;6219456;23;20019;-69
2022/11/01 02:42:20;;;;;;;20.55;9.38;;;;;;;;;;6219463;23;20023;-69
2022/11/01 02:44:53;;;;;;;21.35;9.32;;;;;;;;;;6219430;23;20019;-69
2022/11/01 02:47:19;;;;;;;17.92;9.00;;;;;;;;;;6219403;23;20047;-69
2022/11/01 02:49:54;;;;;;;20.80;8.65;;;;;;;;;;6219403;23;20473;-69
2022/11/01 02:52:23;;;;;;;19.48;8.55;;;;;;;;;;6219318;23;20016;-69
2022/11/01 02:54:51;;;;;;;20.50;9.15;;;;;;;;;;6219238;23;20024;-69
2022/11/01 02:57:17;;;;;;;22.85;9.23;;;;;;;;;;6219248;23;20055;-69
2022/11/01 02:59:45;;;;;;;20.92;8.35;;;;;;;;;;6219297;23;20019;-69
2022/11/01 03:02:21;;;;;;;20.45;8.70;;;;;;;;;;6219376;23;20371;-69
2022/11/01 03:04:47;;;;;;;17.75;9.57;;;;;;;;;;6219186;23;20016;-69
2022/11/01 03:07:14;;;;;;;20.55;8.88;;;;;;;;;;6219146;23;20023;-69
2022/11/01 03:09:41;;;;;;;20.25;8.57;;;;;;;;;;6219006;23;20095;-70
2022/11/01 03:12:12;;;;;;;17.40;8.35;;;;;;;;;;6219203;23;20012;-69
2022/11/01 03:14:43;;;;;;;17.92;8.82;;;;;;;;;;6218677;23;20016;-69
2022/11/01 03:17:16;;;;;;;19.48;8.45;;;;;;;;;;6244513;23;20017;-69
2022/11/01 03:19:46;;;;;;;17.13;8.30;;;;;;;;;;6219090;23;20023;-69
2022/11/01 03:22:14;;;;;;;18.48;8.13;;;;;;;;;;6219122;23;20047;-69
2022/11/01 03:24:41;;;;;;;15.70;7.38;;;;;;;;;;6218955;23;20016;-69
2022/11/01 03:27:13;;;;;;;20.75;8.88;;;;;;;;;;6218989;23;20019;-69
2022/11/01 03:29:41;;;;;;;17.30;8.57;;;;;;;;;;6218947;23;20019;-69
2022/11/01 03:32:08;;;;;;;13.75;8.32;;;;;;;;;;6218972;23;20023;-69
2022/11/01 03:34:35;;;;;;;16.88;7.90;;;;;;;;;;6218861;23;20020;-69
2022/11/01 03:37:04;;;;;;;17.42;7.63;;;;;;;;;;6218744;23;20090;-69
2022/11/01 03:39:33;;;;;;;19.88;8.00;;;;;;;;;;6218810;23;20008;-69
2022/11/01 03:42:02;;;;;;;18.85;7.32;;;;;;;;;;6218873;23;20067;-69
2022/11/01 03:44:41;;;;;;;17.92;8.20;;;;;;;;;;6218688;23;20012;-70
2022/11/01 03:47:07;;;;;;;16.23;8.18;;;;;;;;;;6218780;23;20016;-70
2022/11/01 03:49:33;;;;;;;17.83;8.30;;;;;;;;;;6218897;23;20566;-70
2022/11/01 03:51:59;;;;;;;22.98;7.82;;;;;;;;;;6218958;23;20026;-69
2022/11/01 03:54:26;;;;;;;17.60;8.45;;;;;;;;;;6218623;23;20023;-69
2022/11/01 03:56:52;;;;;;;17.75;7.93;;;;;;;;;;6218818;23;20055;-69
2022/11/01 03:59:18;;;;;;;17.05;7.82;;;;;;;;;;6218595;23;20016;-70
2022/11/01 04:01:44;;;;;;;14.93;7.75;;;;;;;;;;6245612;23;20079;-69
2022/11/01 04:04:10;;;;;;;18.27;8.27;;;;;;;;;;6218557;23;20012;-69
2022/11/01 04:06:36;;;;;;;19.95;8.05;;;;;;;;;;6218614;23;20023;-69
2022/11/01 04:09:02;;;;;;;18.80;7.50;;;;;;;;;;6218344;23;20016;-70
2022/11/01 04:11:28;;;;;;;20.48;7.72;;;;;;;;;;6218578;23;20054;-69
2022/11/01 04:20:31;;;;;;;17.48;7.68;;;;;;;;;;6218545;23;20016;-70
2022/11/01 04:22:11;;;;;;;16.42;7.22;;;;;;;;;;6198033;23;20430;-70
2022/11/01 04:24:37;;;;;;;18.77;7.05;;;;;;;;;;6218567;23;20311;-70
2022/11/01 04:27:03;;;;;;;16.48;7.07;;;;;;;;;;6218463;23;20087;-69
2022/11/01 04:29:29;;;;;;;15.77;7.20;;;;;;;;;;6218384;23;20405;-70
2022/11/01 04:31:56;;;;;;;17.65;7.13;;;;;;;;;;6218734;23;20043;-70
2022/11/01 04:34:40;;;;;;;12.32;7.13;;;;;;;;;;6218734;23;20027;-69
2022/11/01 04:37:07;;;;;;;17.33;6.85;;;;;;;;;;6218410;23;20017;-70
2022/11/01 04:39:33;;;;;;;12.02;6.90;;;;;;;;;;6218386;23;20449;-69
2022/11/01 04:41:59;;;;;;;12.38;6.95;;;;;;;;;;6218745;23;20012;-70
2022/11/01 04:44:25;;;;;;;17.10;6.78;;;;;;;;;;6218655;23;20030;-69
2022/11/01 04:46:51;;;;;;;14.20;6.72;;;;;;;;;;6218624;23;20016;-70
2022/11/01 04:49:17;;;;;;;16.10;6.45;;;;;;;;;;6218839;23;20020;-69
2022/11/01 04:51:43;;;;;;;18.48;6.45;;;;;;;;;;6218508;23;20016;-70
2022/11/01 04:54:09;;;;;;;17.15;6.75;;;;;;;;;;6218363;23;20093;-69
2022/11/01 04:56:35;;;;;;;16.90;5.70;;;;;;;;;;6218339;23;20020;-69
2022/11/01 04:59:01;;;;;;;15.02;5.50;;;;;;;;;;6218680;23;20020;-69
2022/11/01 05:01:27;;;;;;;10.13;5.30;;;;;;;;;;6218305;23;20044;-70
2022/11/01 05:03:54;;;;;;;11.48;4.22;;;;;;;;;;6218471;23;20016;-69
2022/11/01 05:06:20;;;;;;;8.93;4.63;;;;;;;;;;6218456;23;20027;-70
2022/11/01 05:08:46;;;;;;;7.97;3.97;;;;;;;;;;6245270;22;20434;-70
2022/11/01 05:11:12;;;;;;;8.20;3.30;;;;;;;;;;6218216;23;20091;-70
2022/11/01 05:13:39;;;;;;;7.38;3.22;;;;;;;;;;6243784;23;20382;-70
2022/11/01 05:16:05;;;;;;;7.63;2.90;;;;;;;;;;6218335;23;20020;-70
2022/11/01 05:18:31;;;;;;;6.35;3.22;;;;;;;;;;6218345;23;20087;-70
2022/11/01 05:20:57;;;;;;;3.70;2.70;;;;;;;;;;6218332;23;20016;-67
2022/11/01 05:23:23;;;;;;;8.75;2.85;;;;;;;;;;6217986;23;20063;-69
2022/11/01 05:25:49;;;;;;;12.25;4.05;;;;;;;;;;6218218;23;20017;-70
2022/11/01 05:28:15;;;;;;;8.23;2.60;;;;;;;;;;6215591;23;20016;-70
2022/11/01 05:30:42;;;;;;;6.93;3.17;;;;;;;;;;6216975;23;20450;-70
2022/11/01 05:33:10;;;;;;;11.82;2.38;;;;;;;;;;6218897;23;20172;-69
2022/11/01 05:35:36;;;;;;;5.72;2.30;;;;;;;;;;6219201;23;20012;-69
2022/11/01 05:38:03;;;;;;;6.60;2.30;;;;;;;;;;6194929;23;20020;-69
2022/11/01 05:40:30;;;;;;;8.85;2.47;;;;;;;;;;6220902;23;20050;-70
2022/11/01 05:42:56;;;;;;;6.47;2.00;;;;;;;;;;6220687;23;20016;-70
2022/11/01 05:45:22;;;;;;;5.43;1.88;;;;;;;;;;6220569;23;20091;-69
2022/11/01 05:47:49;;;;;;;6.65;2.63;;;;;;;;;;6220650;23;20016;-70
2022/11/01 05:50:15;;;;;;;5.88;2.13;;;;;;;;;;6220424;23;20016;-69
2022/11/01 05:52:42;;;;;;;9.35;2.08;;;;;;;;;;6220525;23;20016;-69
2022/11/01 05:55:08;;;;;;;7.43;1.70;;;;;;;;;;6220233;23;20497;-69
2022/11/01 05:57:35;;;;;;;5.70;1.73;;;;;;;;;;6220447;23;20024;-69
2022/11/01 06:00:01;;;;;;;8.23;3.47;;;;;;;;;;6247284;23;20039;-69
2022/11/01 06:02:30;;;;;;;10.77;1.85;;;;;;;;;;6220074;23;20016;-70
2022/11/01 06:04:56;;;;;;;7.00;1.90;;;;;;;;;;6217820;23;20350;-69
2022/11/01 06:07:24;;;;;;;7.90;1.65;;;;;;;;;;6193781;23;20024;-69
2022/11/01 06:09:50;;;;;;;8.82;1.95;;;;;;;;;;6217547;23;20023;-69
2022/11/01 06:12:16;;;;;;;7.82;1.70;;;;;;;;;;6217940;23;20062;-69
2022/11/01 06:14:42;;;;;;;11.65;2.63;;;;;;;;;;6217832;23;20020;-70
2022/11/01 06:17:11;;;;;;;8.55;2.20;;;;;;;;;;6192840;23;20020;-70
2022/11/01 06:19:37;;;;;;;6.75;1.60;;;;;;;;;;6217716;23;20016;-70
2022/11/01 06:22:03;;;;;;;11.48;1.95;;;;;;;;;;6217732;23;20446;-70
2022/11/01 06:24:30;;;;;;;15.95;2.92;;;;;;;;;;6218528;23;20469;-69
2022/11/01 06:26:56;;;;;;;9.32;2.00;;;;;;;;;;6194301;23;20089;-70
2022/11/01 06:29:22;;;;;;;12.77;2.42;;;;;;;;;;6219797;23;20449;-70
2022/11/01 06:31:48;;;;;;;15.63;2.65;;;;;;;;;;6192896;23;20020;-70
2022/11/01 06:34:14;;;;;;;12.27;2.45;;;;;;;;;;6216418;23;20027;-70
2022/11/01 06:36:42;;;;;;;6.53;1.77;;;;;;;;;;6217226;23;20170;-71
2022/11/01 06:39:09;;;;;;;10.93;1.90;;;;;;;;;;6216524;23;20431;-70
2022/11/01 06:41:35;;;;;;;12.05;1.80;;;;;;;;;;6243530;23;20012;-70
2022/11/01 06:44:01;;;;;;;10.15;2.92;;;;;;;;;;6216570;23;20369;-71
2022/11/01 06:46:28;;;;;;;15.32;2.08;;;;;;;;;;6216743;23;20055;-70
2022/11/01 06:48:54;;;;;;;9.05;1.70;;;;;;;;;;6216722;23;20095;-70
2022/11/01 06:51:20;;;;;;;12.20;1.95;;;;;;;;;;6243276;23;20122;-70
2022/11/01 06:53:46;;;;;;;12.27;2.70;;;;;;;;;;6217212;23;20023;-71
2022/11/01 06:56:13;;;;;;;17.33;2.17;;;;;;;;;;6217486;23;20024;-70
2022/11/01 06:58:39;;;;;;;18.45;2.22;;;;;;;;;;6216705;23;20397;-70
2022/11/01 07:01:05;;;;;;;12.48;2.25;;;;;;;;;;6216675;23;20023;-70
2022/11/01 07:03:31;;;;;;;17.67;2.45;;;;;;;;;;6217408;23;20008;-70
2022/11/01 07:05:59;;;;;;;16.75;3.35;;;;;;;;;;6218130;23;20012;-71
2022/11/01 07:08:25;;;;;;;14.43;1.90;;;;;;;;;;6219014;23;20027;-70
2022/11/01 07:10:52;;;;;;;11.52;1.75;;;;;;;;;;6219394;23;20012;-77
2022/11/01 07:13:18;;;;;;;16.63;2.17;;;;;;;;;;6219389;23;20016;-70
2022/11/01 07:15:44;;;;;;;17.48;2.83;;;;;;;;;;6219557;23;20023;-70
2022/11/01 07:18:11;;;;;;;19.70;3.42;;;;;;;;;;6220771;23;20020;-70
2022/11/01 07:20:40;;;;;;;15.73;2.45;;;;;;;;;;6220208;23;20050;-71
2022/11/01 07:23:09;;;;;;;13.93;1.90;;;;;;;;;;6219577;23;20012;-71
2022/11/01 07:25:35;;;;;;;9.30;2.20;;;;;;;;;;6219201;23;20048;-71
2022/11/01 07:28:01;;;;;;;15.15;2.70;;;;;;;;;;6217692;23;20016;-71
2022/11/01 07:30:27;;;;;;;24.63;2.90;;;;;;;;;;6217689;23;20092;-71
2022/11/01 07:33:00;;;;;;;17.35;2.20;;;;;;;;;;6219537;23;20070;-72
2022/11/01 07:35:26;;;;;;;19.70;3.08;;;;;;;;;;6218186;23;20100;-71
2022/11/01 07:37:53;;;;;;;20.55;2.42;;;;;;;;;;6219504;23;20077;-71
2022/11/01 07:40:19;;;;;;;15.32;2.63;;;;;;;;;;6219485;23;20012;-71
2022/11/01 07:42:45;;;;;;;22.88;3.13;;;;;;;;;;6219639;23;20457;-71
2022/11/01 07:45:12;;;;;;;17.50;2.92;;;;;;;;;;6219626;23;20316;-71
2022/11/01 07:47:38;;;;;;;13.13;2.03;;;;;;;;;;6219469;23;20035;-71
2022/11/01 07:50:05;;;;;;;22.00;2.90;;;;;;;;;;6219400;23;20023;-71
2022/11/01 07:52:31;;;;;;;20.55;3.22;;;;;;;;;;6219417;23;20342;-71
2022/11/01 07:54:57;;;;;;;21.92;3.15;;;;;;;;;;6219110;23;20020;-72
2022/11/01 07:57:23;;;;;;;23.02;4.07;;;;;;;;;;6219158;23;20083;-71
2022/11/01 07:59:49;;;;;;;15.13;2.65;;;;;;;;;;6219093;23;20068;-71
2022/11/01 08:02:15;;;;;;;18.92;4.65;;;;;;;;;;6219176;23;20066;-71
2022/11/01 08:04:42;;;;;;;15.73;2.83;;;;;;;;;;6219115;23;20008;-70
2022/11/01 08:07:08;;;;;;;21.80;3.65;;;;;;;;;;6219206;23;20027;-71
2022/11/01 08:09:34;;;;;;;18.10;3.25;;;;;;;;;;6219041;23;20020;-71
2022/11/01 08:12:00;;;;;;;27.33;2.72;;;;;;;;;;6219193;23;20026;-71
2022/11/01 08:14:26;;;;;;;20.55;2.65;;;;;;;;;;6219075;23;20016;-70
2022/11/01 08:16:54;;;;;;;22.58;3.72;;;;;;;;;;6219122;23;20016;-71
2022/11/01 08:19:24;;;;;;;19.10;3.83;;;;;;;;;;6218290;23;20015;-71
2022/11/01 08:21:50;;;;;;;25.58;4.85;;;;;;;;;;6219103;23;20012;-71
2022/11/01 08:24:16;;;;;;;20.63;3.08;;;;;;;;;;6194094;23;20012;-71
2022/11/01 08:26:42;;;;;;;25.05;3.60;;;;;;;;;;6219021;23;20346;-71
2022/11/01 08:29:08;;;;;;;22.08;3.55;;;;;;;;;;6219167;23;20016;-71
2022/11/01 08:31:38;;;;;;;20.52;2.72;;;;;;;;;;6218965;23;20016;-71
2022/11/01 08:34:04;;;;;;;21.33;3.58;;;;;;;;;;6218937;23;20012;-71
2022/11/01 08:36:31;;;;;;;18.00;3.03;;;;;;;;;;6218980;23;20052;-71
2022/11/01 08:38:57;;;;;;;26.30;3.55;;;;;;;;;;6194234;23;20012;-71
2022/11/01 08:41:24;;;;;;;19.52;2.72;;;;;;;;;;6218996;23;20012;-71
2022/11/01 08:43:50;;;;;;;21.65;3.53;;;;;;;;;;6219053;23;20012;-71
2022/11/01 08:46:16;;;;;;;22.85;3.63;;;;;;;;;;6218911;23;20043;-71
2022/11/01 08:48:42;;;;;;;24.88;2.95;;;;;;;;;;6218909;23;20020;-71
2022/11/01 08:51:08;;;;;;;21.00;2.58;;;;;;;;;;6218972;23;20016;-71
2022/11/01 08:53:34;;;;;;;27.35;3.25;;;;;;;;;;6218942;23;20016;-71
2022/11/01 08:56:00;;;;;;;23.35;3.67;;;;;;;;;;6218747;23;20396;-71
2022/11/01 08:58:26;;;;;;;20.85;3.60;;;;;;;;;;6219055;23;20343;-71
2022/11/01 09:00:52;;;;;;;24.08;2.92;;;;;;;;;;6219157;23;20012;-71
2022/11/01 09:03:18;;;;;;;22.83;3.15;;;;;;;;;;6218588;23;20013;-71
2022/11/01 09:05:44;;;;;;;23.45;3.65;;;;;;;;;;6218743;23;20087;-71
2022/11/01 09:08:10;;;;;;;21.05;3.22;;;;;;;;;;6216886;23;20070;-71
2022/11/01 09:10:36;;;;;;;25.90;4.15;;;;;;;;;;6218203;23;20086;-71
2022/11/01 09:13:03;;;;;;;22.65;3.40;;;;;;;;;;6218474;23;20066;-71
2022/11/01 09:15:29;;;;;;;26.33;4.00;;;;;;;;;;6220880;23;20020;-71
2022/11/01 09:17:55;;;;;;;22.10;3.13;;;;;;;;;;6220726;23;20016;-71
2022/11/01 09:20:22;;;;;;;27.50;4.35;;;;;;;;;;6219263;23;20020;-71
2022/11/01 09:22:52;;;;;;;20.35;3.17;;;;;;;;;;6220457;23;20016;-70
2022/11/01 09:25:18;;;;;;;28.08;3.50;;;;;;;;;;6220815;23;20062;-70
2022/11/01 09:27:44;;;;;;;24.25;4.20;;;;;;;;;;6220371;23;20016;-71
2022/11/01 09:30:10;;;;;;;23.83;3.53;;;;;;;;;;6195266;23;20099;-71
2022/11/01 09:32:36;;;;;;;20.90;3.63;;;;;;;;;;6220685;23;20142;-71
2022/11/01 09:35:02;;;;;;;27.48;3.72;;;;;;;;;;6220557;23;20027;-71
2022/11/01 09:37:28;;;;;;;23.60;3.63;;;;;;;;;;6220513;23;20130;-71
2022/11/01 09:39:55;;;;;;;19.52;3.40;;;;;;;;;;6195778;23;20016;-71
2022/11/01 09:42:28;;;;;;;21.20;3.20;;;;;;;;;;6247846;23;20062;-71
2022/11/01 09:44:54;;;;;;;20.90;3.20;;;;;;;;;;6220656;23;20073;-71
2022/11/01 09:47:22;;;;;;;33.03;3.55;;;;;;;;;;6220579;23;20012;-71
2022/11/01 09:49:50;;;;;;;23.17;3.53;;;;;;;;;;6220337;23;20012;-70
2022/11/01 09:52:21;;;;;;;30.70;3.83;;;;;;;;;;6220457;23;20081;-70
2022/11/01 09:54:48;;;;;;;31.35;3.95;;;;;;;;;;6220547;23;20037;-70
2022/11/01 09:57:17;;;;;;;34.97;4.78;;;;;;;;;;6220444;23;20020;-71
2022/11/01 09:59:46;;;;;;;29.05;3.50;;;;;;;;;;6220469;23;20094;-70
2022/11/01 10:02:14;;;;;;;27.60;3.75;;;;;;;;;;6220504;23;20012;-70
2022/11/01 10:04:52;;;;;;;25.65;3.67;;;;;;;;;;6220252;23;20027;-71
2022/11/01 10:07:19;;;;;;;28.13;3.67;;;;;;;;;;6219446;23;20050;-70
2022/11/01 10:09:51;;;;;;;31.02;3.30;;;;;;;;;;6219001;23;20066;-70
2022/11/01 10:12:36;;;;;;;18.25;3.25;;;;;;;;;;6246062;23;20017;-71
2022/11/01 10:15:11;;;;;;;21.73;3.25;;;;;;;;;;6218744;23;20043;-71
2022/11/01 10:17:49;;;;;;;20.80;3.35;;;;;;;;;;6219288;23;20012;-71
2022/11/01 10:20:16;;;;;;;28.08;3.10;;;;;;;;;;6220235;23;20333;-71
2022/11/01 10:22:43;;;;;;;24.30;3.28;;;;;;;;;;6220148;23;20312;-70
2022/11/01 10:25:19;;;;;;;19.20;3.00;;;;;;;;;;6220198;23;20012;-71
2022/11/01 10:27:45;;;;;;;20.23;3.42;;;;;;;;;;6220224;23;20095;-71
2022/11/01 10:30:11;;;;;;;23.00;2.65;;;;;;;;;;6220355;23;20456;-71
2022/11/01 10:32:40;;;;;;;20.88;3.35;;;;;;;;;;6221534;23;20019;-71
2022/11/01 10:35:12;;;;;;;29.13;3.28;;;;;;;;;;6224244;23;20016;-71
2022/11/01 10:37:42;;;;;;;19.58;2.65;;;;;;;;;;6222313;23;20020;-71
2022/11/01 10:40:12;;;;;;;21.20;3.17;;;;;;;;;;6222356;23;20012;-70
2022/11/01 10:42:38;;;;;;;21.60;3.22;;;;;;;;;;6222974;23;20426;-71
2022/11/01 10:45:07;;;;;;;21.23;3.10;;;;;;;;;;6221244;23;20016;-70
2022/11/01 10:47:33;;;;;;;23.65;3.25;;;;;;;;;;6220616;23;20020;-71
2022/11/01 10:50:20;;;;;;;18.90;2.88;;;;;;;;;;6221077;23;20094;-71
2022/11/01 10:52:51;;;;;;;26.35;3.75;;;;;;;;;;6220108;23;20346;-71
2022/11/01 10:55:24;;;;;;;24.15;3.33;;;;;;;;;;6219952;23;20024;-72
2022/11/01 10:58:01;;;;;;;18.70;3.22;;;;;;;;;;6220001;23;20020;-70
2022/11/01 11:00:27;;;;;;;18.38;2.65;;;;;;;;;;6219770;23;20066;-71
2022/11/01 11:02:57;;;;;;;21.65;3.30;;;;;;;;;;6219863;23;20020;-71
2022/11/01 11:05:24;;;;;;;24.58;3.20;;;;;;;;;;6219807;23;20401;-71
2022/11/01 11:07:51;;;;;;;18.48;2.95;;;;;;;;;;6219166;22;20020;-71
2022/11/01 11:10:21;;;;;;;18.35;3.60;;;;;;;;;;6219714;23;20061;-71
2022/11/01 11:12:49;;;;;;;15.95;2.92;;;;;;;;;;6219713;23;20499;-71
2022/11/01 11:15:17;;;;;;;22.13;3.22;;;;;;;;;;6219674;23;20020;-72
2022/11/01 11:17:45;;;;;;;23.50;2.65;;;;;;;;;;6219636;23;20446;-71
2022/11/01 11:20:12;;;;;;;18.83;3.33;;;;;;;;;;6219830;23;20066;-71
2022/11/01 11:22:40;;;;;;;25.92;3.50;;;;;;;;;;6219636;23;20086;-71
2022/11/01 11:25:07;;;;;;;20.42;4.07;;;;;;;;;;6219662;23;20091;-71
2022/11/01 11:27:34;;;;;;;13.85;2.47;;;;;;;;;;6219430;23;20019;-71
2022/11/01 11:30:03;;;;;;;16.42;3.25;;;;;;;;;;6246397;23;20041;-71
2022/11/01 11:32:33;;;;;;;25.35;4.47;;;;;;;;;;6219784;23;20012;-71
2022/11/01 11:35:01;;;;;;;17.05;2.90;;;;;;;;;;6218698;23;20019;-71
2022/11/01 11:37:34;;;;;;;24.83;3.83;;;;;;;;;;6219131;23;20016;-72
2022/11/01 11:40:02;;;;;;;22.55;3.08;;;;;;;;;;6245597;23;20434;-72
2022/11/01 11:42:29;;;;;;;20.30;2.67;;;;;;;;;;6218678;23;20450;-72
2022/11/01 11:45:14;;;;;;;24.75;3.53;;;;;;;;;;6218761;23;20050;-72
2022/11/01 11:47:40;;;;;;;26.25;3.17;;;;;;;;;;6218836;23;20048;-71
2022/11/01 11:50:22;;;;;;;23.20;2.88;;;;;;;;;;6218694;23;20095;-71
2022/11/01 11:52:49;;;;;;;19.13;3.15;;;;;;;;;;6218700;23;20075;-71
2022/11/01 11:55:25;;;;;;;20.98;2.45;;;;;;;;;;6217041;23;20020;-72
2022/11/01 11:57:52;;;;;;;17.10;2.92;;;;;;;;;;6218656;23;20376;-71
2022/11/01 12:00:23;;;;;;;16.67;2.80;;;;;;;;;;6218702;23;20008;-71
2022/11/01 12:02:49;;;;;;;21.38;3.15;;;;;;;;;;6217495;23;20027;-72
2022/11/01 12:05:17;;;;;;;16.70;2.95;;;;;;;;;;6218231;23;20407;-72
2022/11/01 12:07:50;;;;;;;23.33;3.92;;;;;;;;;;6217192;22;20012;-72
2022/11/01 12:10:25;;;;;;;18.38;3.88;;;;;;;;;;6245373;23;20016;-72
2022/11/01 12:12:52;;;;;;;17.73;2.58;;;;;;;;;;6217040;23;20019;-71
2022/11/01 12:15:35;;;;;;;17.88;2.83;;;;;;;;;;6218788;23;20023;-71
2022/11/01 12:18:14;;;;;;;18.08;2.78;;;;;;;;;;6218620;23;20035;-71
2022/11/01 12:20:40;;;;;;;19.10;4.05;;;;;;;;;;6218699;23;20023;-71
2022/11/01 12:23:06;;;;;;;23.27;3.17;;;;;;;;;;6245603;23;20339;-72
2022/11/01 12:25:34;;;;;;;22.95;3.58;;;;;;;;;;6218686;23;20461;-71
2022/11/01 12:28:02;;;;;;;16.83;2.47;;;;;;;;;;6218281;23;20016;-72
2022/11/01 12:30:30;;;;;;;24.42;3.67;;;;;;;;;;6218685;23;20101;-72
2022/11/01 12:32:57;;;;;;;25.80;3.75;;;;;;;;;;6217538;23;20012;-72
2022/11/01 12:35:36;;;;;;;21.40;3.17;;;;;;;;;;6218192;23;20078;-72
2022/11/01 12:38:42;;;;;;;15.90;2.85;;;16.20;99.90;;;;;;6218357;23;20016;-72
2022/11/01 12:41:20;;;;;;;22.25;2.53;;;;;;;;;;6218220;23;20446;-72
2022/11/01 12:43:57;;;;;;;18.13;3.40;;;;;;;;;;6218532;23;20018;-72
2022/11/01 12:46:28;;;;;;;18.83;3.03;;;;;;;;;;6217580;23;20016;-72
2022/11/01 12:49:01;;;;;;;16.13;2.65;;;;;;;;;;6220519;23;20070;-72
2022/11/01 12:51:39;;;;;;;12.48;2.67;;;;;;;;;;6220594;23;20114;-72
2022/11/01 12:54:11;;;;;;;21.67;3.33;;;;;;;;;;6220569;23;20027;-72
2022/11/01 12:56:37;;;;;;;19.35;2.95;;;;;;;;;;6220033;23;20027;-72
2022/11/01 12:59:04;;;;;;;16.05;2.50;;;;;;;;;;6220486;23;20012;-74
2022/11/01 13:01:42;;;;;;;12.68;2.58;;;;;;;;;;6220300;23;20023;-73
2022/11/01 13:04:17;;;;;;;22.55;2.85;;;;;;;;;;6220200;23;20098;-73
2022/11/01 13:06:46;;;;;;;18.65;2.83;;;;;;;;;;6220107;23;20027;-73
2022/11/01 13:09:12;;;;;;;23.52;3.85;;;;;;;;;;6220212;23;20042;-73
2022/11/01 13:12:06;;;;;;;17.38;2.92;;;17.20;99.90;;;;;;6220473;23;20016;-73
2022/11/01 13:14:33;;;;;;;20.58;3.17;;;;;;;;;;6220166;23;20024;-74
2022/11/01 13:17:19;;;;;;;23.75;3.03;;;;;;;;;;6220152;23;20092;-74
2022/11/01 13:19:50;;;;;;;16.98;3.05;;;;;;;;;;6220020;23;20043;-74
2022/11/01 13:22:34;;;;;;;13.20;2.58;;;;;;;;;;6220310;23;20015;-73
2022/11/01 13:25:19;;;;;;;21.33;2.85;;;;;;;;;;6220270;23;20044;-74
2022/11/01 13:27:55;;;;;;;14.43;2.80;;;;;;;;;;6219988;23;20020;-73
2022/11/01 13:30:21;;;;;;;15.77;2.70;;;;;;;;;;6220212;23;20020;-73
2022/11/01 13:33:16;;;;;;;21.05;2.67;;;17.50;99.90;;;;;;6220216;23;20035;-73
2022/11/01 13:35:43;;;;;;;23.35;3.40;;;;;;;;;;6220163;23;20012;-73
2022/11/01 13:38:27;;;;;;;12.00;2.40;;;;;;;;;;6220092;23;20162;-74
2022/11/01 13:41:00;;;;;;;10.35;2.25;;;;;;;;;;6220073;23;20040;-72
2022/11/01 13:43:30;;;;;;;11.25;2.72;;;;;;;;;;6220109;23;20091;-74
2022/11/01 13:45:59;;;;;;;14.88;2.90;;;;;;;;;;6219897;23;20335;-74
2022/11/01 13:48:44;;;;;;;10.07;2.28;;;;;;;;;;6219878;23;20020;-74
2022/11/01 13:51:36;;;;;;;20.20;4.03;;;;;;;;;;6219974;23;20027;-74
2022/11/01 13:54:13;;;;;;;13.68;1.95;;;;;;;;;;6174883;23;20016;-74
2022/11/01 13:56:42;;;;;;;14.70;2.50;;;;;;;;;;6219633;23;20074;-73
2022/11/01 13:59:15;;;;;;;17.25;2.40;;;;;;;;;;6219557;23;20378;-74
2022/11/01 14:01:41;;;;;;;12.05;2.17;;;;;;;;;;6219921;23;20019;-75
2022/11/01 14:04:07;;;;;;;7.50;2.20;;;;;;;;;;6219839;23;20023;-73
2022/11/01 14:06:37;;;;;;;9.68;2.03;;;;;;;;;;6220278;23;20464;-74
2022/11/01 14:09:18;;;;;;;6.88;1.70;;;;;;;;;;6220219;23;20077;-74
2022/11/01 14:11:47;;;;;;;14.43;2.30;;;;;;;;;;6220228;23;20113;-74
2022/11/01 14:14:29;;;;;;;11.48;2.60;;;;;;;;;;6220300;23;20016;-74
2022/11/01 14:17:16;;;;;;;17.33;2.95;;;17.10;99.90;;;;;;6220128;23;20020;-73
2022/11/01 14:19:43;;;;;;;9.88;1.98;;;;;;;;;;6219975;23;20031;-73
2022/11/01 14:22:23;;;;;;;9.88;1.80;;;;;;;;;;6220086;23;20012;-72
2022/11/01 14:24:53;;;;;;;11.38;2.40;;;;;;;;;;6219899;23;20008;-73
2022/11/01 14:27:21;;;;;;;11.18;1.85;;;;;;;;;;6219693;23;20016;-73
2022/11/01 14:29:49;;;;;;;17.15;2.08;;;;;;;;;;6220068;23;20087;-73
2022/11/01 14:32:15;;;;;;;16.95;2.10;;;;;;;;;;6220193;23;20016;-73
2022/11/01 14:34:44;;;;;;;16.30;2.15;;;;;;;;;;6219928;23;20449;-73
2022/11/01 14:37:15;;;;;;;8.43;1.90;;;;;;;;;;6219873;23;20047;-73
2022/11/01 14:39:54;;;;;;;17.57;2.03;;;;;;;;;;6219890;23;20044;-72
2022/11/01 14:42:25;;;;;;;12.43;1.95;;;;;;;;;;6219814;23;20243;-73
2022/11/01 14:44:53;;;;;;;10.73;2.27;;;;;;;;;;6220172;23;20046;-73